sensor_id;sensor_type;location;lat;lon;timestamp;pressure;altitude;pressure_sealevel;temperature;humidity
19023;BME280;35226;48.606;8.858;2023-02-15T00:01:42;97498.09;;;-0.01;100.00
19023;BME280;35226;48.606;8.858;2023-02-15T00:04:09;97502.34;;;0.00;100.00
19023;BME280;35226;48.606;8.858;2023-02-15T00:06:35;97493.94;;;-0.10;100.00
19023;BME280;35226;48.606;8.858;2023-02-15T00:09:02;97497.72;;;0.01;100.00
19023;BME280;35226;48.606;8.858;2023-02-15T00:11:31;97494.44;;;0.08;100.00
19023;BME280;35226;48.606;8.858;2023-02-15T00:14:08;97494.66;;;0.03;100.00
19023;BME280;35226;48.606;8.858;2023-02-15T00:16:34;97490.28;;;-0.02;100.00
19023;BME280;35226;48.606;8.858;2023-02-15T00:18:59;97483.72;;;-0.01;100.00
19023;BME280;35226;48.606;8.858;2023-02-15T00:21:28;97489.38;;;-0.06;100.00
19023;BME280;35226;48.606;8.858;2023-02-15T00:23:55;97481.91;;;-0.09;100.00
19023;BME280;35226;48.606;8.858;2023-02-15T00:26:21;97475.56;;;-0.01;100.00
19023;BME280;35226;48.606;8.858;2023-02-15T00:28:47;97481.78;;;-0.01;100.00
19023;BME280;35226;48.606;8.858;2023-02-15T00:31:13;97482.91;;;-0.02;100.00
19023;BME280;35226;48.606;8.858;2023-02-15T00:33:39;97482.03;;;-0.06;100.00
19023;BME280;35226;48.606;8.858;2023-02-15T00:36:06;97477.53;;;-0.14;100.00
19023;BME280;35226;48.606;8.858;2023-02-15T00:38:33;97479.69;;;-0.19;100.00
19023;BME280;35226;48.606;8.858;2023-02-15T00:41:01;97484.69;;;-0.21;100.00
19023;BME280;35226;48.606;8.858;2023-02-15T00:43:28;97480.03;;;-0.21;100.00
19023;BME280;35226;48.606;8.858;2023-02-15T00:45:54;97489.00;;;-0.32;100.00
19023;BME280;35226;48.606;8.858;2023-02-15T00:48:20;97479.88;;;-0.40;100.00
19023;BME280;35226;48.606;8.858;2023-02-15T00:50:48;97477.09;;;-0.28;100.00
19023;BME280;35226;48.606;8.858;2023-02-15T00:53:14;97481.75;;;-0.28;100.00
19023;BME280;35226;48.606;8.858;2023-02-15T00:55:40;97472.81;;;-0.29;100.00
19023;BME280;35226;48.606;8.858;2023-02-15T00:58:06;97474.97;;;-0.34;100.00
19023;BME280;35226;48.606;8.858;2023-02-15T01:00:32;97473.28;;;-0.39;100.00
19023;BME280;35226;48.606;8.858;2023-02-15T01:02:57;97471.50;;;-0.47;100.00
19023;BME280;35226;48.606;8.858;2023-02-15T01:05:23;97480.44;;;-0.47;100.00
19023;BME280;35226;48.606;8.858;2023-02-15T01:07:49;97478.19;;;-0.45;100.00
19023;BME280;35226;48.606;8.858;2023-02-15T01:10:15;97486.44;;;-0.41;100.00
19023;BME280;35226;48.606;8.858;2023-02-15T01:12:40;97481.44;;;-0.39;100.00
19023;BME280;35226;48.606;8.858;2023-02-15T01:15:06;97482.03;;;-0.46;100.00
19023;BME280;35226;48.606;8.858;2023-02-15T01:17:32;97478.19;;;-0.45;100.00
19023;BME280;35226;48.606;8.858;2023-02-15T01:19:58;97480.78;;;-0.48;100.00
19023;BME280;35226;48.606;8.858;2023-02-15T01:22:24;97474.81;;;-0.54;100.00
19023;BME280;35226;48.606;8.858;2023-02-15T01:24:50;97468.44;;;-0.46;100.00
19023;BME280;35226;48.606;8.858;2023-02-15T01:27:16;97463.41;;;-0.59;100.00
19023;BME280;35226;48.606;8.858;2023-02-15T01:29:42;97462.69;;;-0.56;100.00
19023;BME280;35226;48.606;8.858;2023-02-15T01:32:08;97465.53;;;-0.53;100.00
19023;BME280;35226;48.606;8.858;2023-02-15T01:34:33;97466.53;;;-0.57;100.00
19023;BME280;35226;48.606;8.858;2023-02-15T01:36:59;97460.78;;;-0.56;100.00
19023;BME280;35226;48.606;8.858;2023-02-15T01:39:25;97466.13;;;-0.71;100.00
19023;BME280;35226;48.606;8.858;2023-02-15T01:41:51;97460.69;;;-0.71;100.00
19023;BME280;35226;48.606;8.858;2023-02-15T01:47:14;97456.16;;;-0.55;100.00
19023;BME280;35226;48.606;8.858;2023-02-15T01:49:42;97454.69;;;-0.65;100.00
19023;BME280;35226;48.606;8.858;2023-02-15T01:52:13;97454.81;;;-0.61;100.00
19023;BME280;35226;48.606;8.858;2023-02-15T01:54:44;97456.81;;;-0.58;100.00
19023;BME280;35226;48.606;8.858;2023-02-15T01:57:15;97456.53;;;-0.69;100.00
19023;BME280;35226;48.606;8.858;2023-02-15T01:59:46;97458.00;;;-0.71;100.00
19023;BME280;35226;48.606;8.858;2023-02-15T02:02:16;97448.59;;;-0.74;100.00
19023;BME280;35226;48.606;8.858;2023-02-15T02:04:47;97457.53;;;-0.86;100.00
19023;BME280;35226;48.606;8.858;2023-02-15T02:07:19;97446.94;;;-0.79;100.00
19023;BME280;35226;48.606;8.858;2023-02-15T02:09:49;97448.94;;;-0.88;100.00
19023;BME280;35226;48.606;8.858;2023-02-15T02:12:16;97441.72;;;-0.96;100.00
19023;BME280;35226;48.606;8.858;2023-02-15T02:14:43;97444.78;;;-0.97;100.00
19023;BME280;35226;48.606;8.858;2023-02-15T02:17:18;97445.56;;;-0.97;100.00
19023;BME280;35226;48.606;8.858;2023-02-15T02:22:39;97448.28;;;-0.97;100.00
19023;BME280;35226;48.606;8.858;2023-02-15T02:41:36;97430.66;;;-1.15;100.00
19023;BME280;35226;48.606;8.858;2023-02-15T02:46:53;97439.25;;;-1.25;100.00
19023;BME280;35226;48.606;8.858;2023-02-15T02:49:40;97425.47;;;-1.20;100.00
19023;BME280;35226;48.606;8.858;2023-02-15T02:55:00;97437.56;;;-1.30;100.00
19023;BME280;35226;48.606;8.858;2023-02-15T02:57:27;97428.19;;;-1.32;100.00
19023;BME280;35226;48.606;8.858;2023-02-15T02:59:54;97432.81;;;-1.33;100.00
19023;BME280;35226;48.606;8.858;2023-02-15T03:02:24;97443.09;;;-1.51;100.00
19023;BME280;35226;48.606;8.858;2023-02-15T03:04:56;97435.84;;;-1.46;100.00
19023;BME280;35226;48.606;8.858;2023-02-15T03:07:30;97435.19;;;-1.43;100.00
19023;BME280;35226;48.606;8.858;2023-02-15T03:10:00;97435.31;;;-1.40;100.00
19023;BME280;35226;48.606;8.858;2023-02-15T03:12:29;97434.97;;;-1.38;100.00
19023;BME280;35226;48.606;8.858;2023-02-15T03:15:11;97435.19;;;-1.43;100.00
19023;BME280;35226;48.606;8.858;2023-02-15T03:17:46;97428.16;;;-1.44;100.00
19023;BME280;35226;48.606;8.858;2023-02-15T03:20:20;97427.50;;;-1.54;100.00
19023;BME280;35226;48.606;8.858;2023-02-15T03:23:16;97424.91;;;-1.50;100.00
19023;BME280;35226;48.606;8.858;2023-02-15T03:25:45;97428.50;;;-1.46;100.00
19023;BME280;35226;48.606;8.858;2023-02-15T03:28:36;97434.50;;;-1.53;100.00
19023;BME280;35226;48.606;8.858;2023-02-15T03:31:05;97429.06;;;-1.53;100.00
19023;BME280;35226;48.606;8.858;2023-02-15T03:33:32;97428.63;;;-1.55;100.00
19023;BME280;35226;48.606;8.858;2023-02-15T03:36:21;97427.72;;;-1.59;100.00
19023;BME280;35226;48.606;8.858;2023-02-15T03:41:19;97435.06;;;-1.59;100.00
19023;BME280;35226;48.606;8.858;2023-02-15T03:44:06;97436.19;;;-1.60;100.00
19023;BME280;35226;48.606;8.858;2023-02-15T03:46:39;97440.03;;;-1.61;100.00
19023;BME280;35226;48.606;8.858;2023-02-15T03:49:20;97431.19;;;-1.70;100.00
19023;BME280;35226;48.606;8.858;2023-02-15T03:51:49;97428.59;;;-1.79;100.00
19023;BME280;35226;48.606;8.858;2023-02-15T03:54:23;97425.88;;;-1.79;100.00
19023;BME280;35226;48.606;8.858;2023-02-15T03:57:11;97426.34;;;-1.77;100.00
19023;BME280;35226;48.606;8.858;2023-02-15T03:59:56;97425.50;;;-1.90;100.00
19023;BME280;35226;48.606;8.858;2023-02-15T04:05:43;97413.66;;;-1.85;100.00
19023;BME280;35226;48.606;8.858;2023-02-15T04:08:10;97419.88;;;-1.84;100.00
19023;BME280;35226;48.606;8.858;2023-02-15T04:10:36;97417.06;;;-1.88;100.00
19023;BME280;35226;48.606;8.858;2023-02-15T04:13:29;97414.44;;;-1.84;100.00
19023;BME280;35226;48.606;8.858;2023-02-15T04:15:54;97412.75;;;-1.89;100.00
19023;BME280;35226;48.606;8.858;2023-02-15T04:18:35;97420.56;;;-1.88;100.00
19023;BME280;35226;48.606;8.858;2023-02-15T04:21:21;97411.75;;;-1.84;100.00
19023;BME280;35226;48.606;8.858;2023-02-15T04:24:06;97413.09;;;-1.91;100.00
19023;BME280;35226;48.606;8.858;2023-02-15T04:26:50;97409.59;;;-1.91;100.00
19023;BME280;35226;48.606;8.858;2023-02-15T04:29:20;97413.38;;;-2.04;100.00
19023;BME280;35226;48.606;8.858;2023-02-15T04:31:47;97415.44;;;-2.01;100.00
19023;BME280;35226;48.606;8.858;2023-02-15T04:34:13;97412.59;;;-2.05;100.00
19023;BME280;35226;48.606;8.858;2023-02-15T04:36:40;97413.38;;;-2.04;100.00
19023;BME280;35226;48.606;8.858;2023-02-15T04:39:06;97418.47;;;-2.03;100.00
19023;BME280;35226;48.606;8.858;2023-02-15T04:41:32;97420.66;;;-1.96;100.00
19023;BME280;35226;48.606;8.858;2023-02-15T04:43:59;97421.31;;;-1.99;100.00
19023;BME280;35226;48.606;8.858;2023-02-15T04:46:26;97427.38;;;-2.02;100.00
19023;BME280;35226;48.606;8.858;2023-02-15T04:48:52;97418.13;;;-2.01;100.00
19023;BME280;35226;48.606;8.858;2023-02-15T04:51:18;97416.66;;;-2.11;100.00
19023;BME280;35226;48.606;8.858;2023-02-15T04:53:44;97417.44;;;-2.10;100.00
19023;BME280;35226;48.606;8.858;2023-02-15T04:56:09;97420.47;;;-2.12;100.00
19023;BME280;35226;48.606;8.858;2023-02-15T04:58:35;97423.00;;;-2.07;100.00
19023;BME280;35226;48.606;8.858;2023-02-15T05:01:02;97404.78;;;-2.18;100.00
19023;BME280;35226;48.606;8.858;2023-02-15T05:03:28;97412.13;;;-2.19;100.00
19023;BME280;35226;48.606;8.858;2023-02-15T05:05:54;97402.00;;;-2.10;100.00
19023;BME280;35226;48.606;8.858;2023-02-15T05:08:19;97403.44;;;-2.12;100.00
19023;BME280;35226;48.606;8.858;2023-02-15T05:10:47;97400.72;;;-2.12;100.00
19023;BME280;35226;48.606;8.858;2023-02-15T05:13:13;97398.03;;;-2.12;100.00
19023;BME280;35226;48.606;8.858;2023-02-15T05:15:38;97396.44;;;-2.13;100.00
19023;BME280;35226;48.606;8.858;2023-02-15T05:18:04;97397.00;;;-2.20;100.00
19023;BME280;35226;48.606;8.858;2023-02-15T05:20:31;97396.19;;;-2.20;100.00
19023;BME280;35226;48.606;8.858;2023-02-15T05:22:57;97399.84;;;-2.16;100.00
19023;BME280;35226;48.606;8.858;2023-02-15T05:25:22;97399.69;;;-2.20;100.00
19023;BME280;35226;48.606;8.858;2023-02-15T05:28:09;97395.88;;;-2.19;100.00
19023;BME280;35226;48.606;8.858;2023-02-15T05:30:48;97393.91;;;-2.31;100.00
19023;BME280;35226;48.606;8.858;2023-02-15T05:33:14;97398.34;;;-2.26;100.00
19023;BME280;35226;48.606;8.858;2023-02-15T05:35:40;97402.03;;;-2.31;100.00
19023;BME280;35226;48.606;8.858;2023-02-15T05:38:05;97392.25;;;-2.23;100.00
19023;BME280;35226;48.606;8.858;2023-02-15T05:40:31;97402.59;;;-2.25;100.00
19023;BME280;35226;48.606;8.858;2023-02-15T05:42:57;97399.88;;;-2.37;100.00
19023;BME280;35226;48.606;8.858;2023-02-15T05:45:23;97399.88;;;-2.37;100.00
19023;BME280;35226;48.606;8.858;2023-02-15T05:47:48;97399.19;;;-2.34;100.00
19023;BME280;35226;48.606;8.858;2023-02-15T05:50:14;97403.94;;;-2.31;100.00
19023;BME280;35226;48.606;8.858;2023-02-15T05:52:40;97404.41;;;-2.29;100.00
19023;BME280;35226;48.606;8.858;2023-02-15T05:55:05;97405.53;;;-2.30;100.00
19023;BME280;35226;48.606;8.858;2023-02-15T05:57:31;97403.63;;;-2.30;100.00
19023;BME280;35226;48.606;8.858;2023-02-15T05:59:57;97408.25;;;-2.30;100.00
19023;BME280;35226;48.606;8.858;2023-02-15T06:02:25;97417.22;;;-2.38;100.00
19023;BME280;35226;48.606;8.858;2023-02-15T06:04:51;97413.25;;;-2.41;100.00
19023;BME280;35226;48.606;8.858;2023-02-15T06:07:16;97417.81;;;-2.33;100.00
19023;BME280;35226;48.606;8.858;2023-02-15T06:09:42;97413.34;;;-2.49;100.00
19023;BME280;35226;48.606;8.858;2023-02-15T06:12:07;97421.13;;;-2.48;100.00
19023;BME280;35226;48.606;8.858;2023-02-15T06:14:33;97412.88;;;-2.51;100.00
19023;BME280;35226;48.606;8.858;2023-02-15T06:16:58;97418.69;;;-2.41;100.00
19023;BME280;35226;48.606;8.858;2023-02-15T06:19:24;97418.69;;;-2.41;100.00
19023;BME280;35226;48.606;8.858;2023-02-15T06:21:49;97425.34;;;-2.38;100.00
19023;BME280;35226;48.606;8.858;2023-02-15T06:24:15;97423.75;;;-2.39;100.00
19023;BME280;35226;48.606;8.858;2023-02-15T06:26:41;97421.94;;;-2.47;100.00
19023;BME280;35226;48.606;8.858;2023-02-15T06:29:06;97426.06;;;-2.50;100.00
19023;BME280;35226;48.606;8.858;2023-02-15T06:31:32;97423.69;;;-2.51;100.00
19023;BME280;35226;48.606;8.858;2023-02-15T06:33:57;97425.75;;;-2.48;100.00
19023;BME280;35226;48.606;8.858;2023-02-15T06:36:30;97423.44;;;-2.58;100.00
19023;BME280;35226;48.606;8.858;2023-02-15T06:38:56;97429.00;;;-2.55;100.00
19023;BME280;35226;48.606;8.858;2023-02-15T06:41:22;97428.91;;;-2.46;100.00
19023;BME280;35226;48.606;8.858;2023-02-15T06:43:48;97436.09;;;-2.50;100.00
19023;BME280;35226;48.606;8.858;2023-02-15T06:46:14;97430.38;;;-2.49;100.00
19023;BME280;35226;48.606;8.858;2023-02-15T06:48:39;97431.16;;;-2.48;100.00
19023;BME280;35226;48.606;8.858;2023-02-15T06:51:05;97436.56;;;-2.48;100.00
19023;BME280;35226;48.606;8.858;2023-02-15T06:53:30;97438.28;;;-2.44;100.00
19023;BME280;35226;48.606;8.858;2023-02-15T06:56:04;97438.94;;;-2.47;100.00
19023;BME280;35226;48.606;8.858;2023-02-15T06:58:38;97437.03;;;-2.46;100.00
19023;BME280;35226;48.606;8.858;2023-02-15T07:01:05;97446.34;;;-2.35;100.00
19023;BME280;35226;48.606;8.858;2023-02-15T07:03:31;97443.50;;;-2.39;100.00
19023;BME280;35226;48.606;8.858;2023-02-15T07:05:58;97443.88;;;-2.28;100.00
19023;BME280;35226;48.606;8.858;2023-02-15T07:08:25;97440.84;;;-2.27;100.00
19023;BME280;35226;48.606;8.858;2023-02-15T07:10:52;97440.16;;;-2.24;100.00
19023;BME280;35226;48.606;8.858;2023-02-15T07:13:18;97438.53;;;-2.16;100.00
19023;BME280;35226;48.606;8.858;2023-02-15T07:15:44;97439.91;;;-2.10;100.00
19023;BME280;35226;48.606;8.858;2023-02-15T07:18:11;97441.25;;;-2.04;100.00
19023;BME280;35226;48.606;8.858;2023-02-15T07:20:37;97441.38;;;-2.00;100.00
19023;BME280;35226;48.606;8.858;2023-02-15T07:23:04;97442.09;;;-1.91;100.00
19023;BME280;35226;48.606;8.858;2023-02-15T07:25:30;97442.88;;;-1.91;100.00
19023;BME280;35226;48.606;8.858;2023-02-15T07:28:02;97440.31;;;-1.87;100.00
19023;BME280;35226;48.606;8.858;2023-02-15T07:30:29;97440.50;;;-1.92;100.00
19023;BME280;35226;48.606;8.858;2023-02-15T07:32:57;97436.91;;;-1.84;100.00
19023;BME280;35226;48.606;8.858;2023-02-15T07:35:59;97445.16;;;-1.80;100.00
19023;BME280;35226;48.606;8.858;2023-02-15T07:38:26;97443.50;;;-1.73;100.00
19023;BME280;35226;48.606;8.858;2023-02-15T07:41:00;97443.28;;;-1.68;100.00
19023;BME280;35226;48.606;8.858;2023-02-15T07:43:27;97439.88;;;-1.65;100.00
19023;BME280;35226;48.606;8.858;2023-02-15T07:45:53;97447.81;;;-1.60;100.00
19023;BME280;35226;48.606;8.858;2023-02-15T07:48:18;97439.13;;;-1.53;100.00
19023;BME280;35226;48.606;8.858;2023-02-15T07:50:49;97434.72;;;-1.58;100.00
19023;BME280;35226;48.606;8.858;2023-02-15T07:53:15;97434.63;;;-1.49;100.00
19023;BME280;35226;48.606;8.858;2023-02-15T07:55:40;97435.75;;;-1.50;100.00
19023;BME280;35226;48.606;8.858;2023-02-15T07:58:06;97436.19;;;-1.36;100.00
19023;BME280;35226;48.606;8.858;2023-02-15T08:00:31;97432.81;;;-1.33;100.00
19023;BME280;35226;48.606;8.858;2023-02-15T08:03:17;97434.88;;;-1.18;100.00
19023;BME280;35226;48.606;8.858;2023-02-15T08:05:44;97431.25;;;-1.22;100.00
19023;BME280;35226;48.606;8.858;2023-02-15T08:08:11;97431.78;;;-1.16;100.00
19023;BME280;35226;48.606;8.858;2023-02-15T08:13:49;97421.63;;;-0.95;100.00
19023;BME280;35226;48.606;8.858;2023-02-15T08:16:36;97422.88;;;-0.92;100.00
19023;BME280;35226;48.606;8.858;2023-02-15T08:21:41;97426.91;;;-0.74;100.00
19023;BME280;35226;48.606;8.858;2023-02-15T08:24:08;97424.84;;;-0.77;100.00
19023;BME280;35226;48.606;8.858;2023-02-15T08:26:35;97419.19;;;-0.60;100.00
19023;BME280;35226;48.606;8.858;2023-02-15T08:29:01;97413.06;;;-0.57;100.00
19023;BME280;35226;48.606;8.858;2023-02-15T08:31:28;97418.59;;;-0.53;100.00
19023;BME280;35226;48.606;8.858;2023-02-15T08:33:55;97413.28;;;-0.50;100.00
19023;BME280;35226;48.606;8.858;2023-02-15T08:36:23;97410.97;;;-0.35;100.00
19023;BME280;35226;48.606;8.858;2023-02-15T08:38:49;97412.44;;;-0.38;100.00
19023;BME280;35226;48.606;8.858;2023-02-15T08:41:18;97407.91;;;-0.34;100.00
19023;BME280;35226;48.606;8.858;2023-02-15T08:43:46;97411.53;;;-0.30;100.00
19023;BME280;35226;48.606;8.858;2023-02-15T08:46:13;97409.38;;;-0.09;100.00
19023;BME280;35226;48.606;8.858;2023-02-15T08:48:39;97411.41;;;-0.06;100.00
19023;BME280;35226;48.606;8.858;2023-02-15T08:51:07;97411.69;;;0.05;100.00
19023;BME280;35226;48.606;8.858;2023-02-15T08:53:33;97408.34;;;0.12;100.00
19023;BME280;35226;48.606;8.858;2023-02-15T08:55:59;97419.22;;;0.12;100.00
19023;BME280;35226;48.606;8.858;2023-02-15T08:58:25;97409.53;;;0.26;100.00
19023;BME280;35226;48.606;8.858;2023-02-15T09:00:51;97414.38;;;0.49;100.00
19023;BME280;35226;48.606;8.858;2023-02-15T09:03:16;97407.53;;;0.55;100.00
19023;BME280;35226;48.606;8.858;2023-02-15T09:05:42;97403.69;;;0.56;100.00
19023;BME280;35226;48.606;8.858;2023-02-15T09:08:08;97406.53;;;0.79;100.00
19023;BME280;35226;48.606;8.858;2023-02-15T09:10:33;97403.72;;;0.91;100.00
19023;BME280;35226;48.606;8.858;2023-02-15T09:12:59;97405.41;;;0.95;100.00
19023;BME280;35226;48.606;8.858;2023-02-15T09:15:24;97406.94;;;1.12;100.00
19023;BME280;35226;48.606;8.858;2023-02-15T09:17:50;97399.28;;;1.18;100.00
19023;BME280;35226;48.606;8.858;2023-02-15T09:20:15;97399.84;;;1.42;100.00
19023;BME280;35226;48.606;8.858;2023-02-15T09:22:41;97396.41;;;1.45;100.00
19023;BME280;35226;48.606;8.858;2023-02-15T09:25:07;97390.88;;;1.42;100.00
19023;BME280;35226;48.606;8.858;2023-02-15T09:27:32;97396.56;;;1.72;100.00
19023;BME280;35226;48.606;8.858;2023-02-15T09:29:58;97398.69;;;1.82;100.00
19023;BME280;35226;48.606;8.858;2023-02-15T09:32:24;97390.59;;;1.85;100.00
19023;BME280;35226;48.606;8.858;2023-02-15T09:34:50;97384.34;;;2.04;100.00
19023;BME280;35226;48.606;8.858;2023-02-15T09:37:15;97382.09;;;2.10;100.00
19023;BME280;35226;48.606;8.858;2023-02-15T09:39:42;97377.31;;;2.26;100.00
19023;BME280;35226;48.606;8.858;2023-02-15T09:56:17;97366.22;;;3.40;100.00
19023;BME280;35226;48.606;8.858;2023-02-15T10:01:14;97362.91;;;3.87;100.00
19023;BME280;35226;48.606;8.858;2023-02-15T10:09:42;97364.06;;;4.67;100.00
19023;BME280;35226;48.606;8.858;2023-02-15T10:28:23;97362.19;;;6.34;100.00
19023;BME280;35226;48.606;8.858;2023-02-15T10:30:57;97356.31;;;6.53;100.00
19023;BME280;35226;48.606;8.858;2023-02-15T10:33:43;97353.59;;;6.71;100.00
19023;BME280;35226;48.606;8.858;2023-02-15T10:36:32;97352.78;;;6.88;100.00
19023;BME280;35226;48.606;8.858;2023-02-15T10:41:41;97342.56;;;7.24;100.00
19023;BME280;35226;48.606;8.858;2023-02-15T10:44:24;97338.75;;;7.98;100.00
19023;BME280;35226;48.606;8.858;2023-02-15T10:55:43;97328.06;;;8.07;100.00
19023;BME280;35226;48.606;8.858;2023-02-15T11:06:18;97320.34;;;8.99;100.00
19023;BME280;35226;48.606;8.858;2023-02-15T11:08:47;97322.63;;;9.45;100.00
19023;BME280;35226;48.606;8.858;2023-02-15T11:11:29;97318.19;;;9.54;100.00
19023;BME280;35226;48.606;8.858;2023-02-15T11:14:02;97317.72;;;9.25;100.00
19023;BME280;35226;48.606;8.858;2023-02-15T11:16:36;97308.53;;;9.70;100.00
19023;BME280;35226;48.606;8.858;2023-02-15T11:19:11;97308.38;;;9.84;100.00
19023;BME280;35226;48.606;8.858;2023-02-15T11:21:43;97300.91;;;10.11;100.00
19023;BME280;35226;48.606;8.858;2023-02-15T11:24:13;97298.22;;;10.34;100.00
19023;BME280;35226;48.606;8.858;2023-02-15T11:26:46;97294.25;;;10.86;99.07
19023;BME280;35226;48.606;8.858;2023-02-15T11:29:26;97298.63;;;10.60;100.00
19023;BME280;35226;48.606;8.858;2023-02-15T11:32:11;97293.94;;;10.30;99.71
19023;BME280;35226;48.606;8.858;2023-02-15T11:34:49;97291.97;;;10.57;100.00
19023;BME280;35226;48.606;8.858;2023-02-15T11:37:19;97279.53;;;11.35;96.78
19023;BME280;35226;48.606;8.858;2023-02-15T11:39:50;97288.31;;;11.50;91.45
19023;BME280;35226;48.606;8.858;2023-02-15T11:42:20;97273.44;;;11.64;84.67
19023;BME280;35226;48.606;8.858;2023-02-15T11:47:41;97283.16;;;11.09;80.07
19023;BME280;35226;48.606;8.858;2023-02-15T11:50:17;97269.56;;;11.38;89.76
19023;BME280;35226;48.606;8.858;2023-02-15T11:52:47;97274.13;;;11.48;87.78
19023;BME280;35226;48.606;8.858;2023-02-15T11:55:19;97268.53;;;11.52;89.16
19023;BME280;35226;48.606;8.858;2023-02-15T11:57:51;97258.00;;;12.02;89.42
19023;BME280;35226;48.606;8.858;2023-02-15T12:00:32;97259.66;;;12.16;84.24
19023;BME280;35226;48.606;8.858;2023-02-15T12:03:06;97255.28;;;12.67;79.21
19023;BME280;35226;48.606;8.858;2023-02-15T12:05:36;97260.97;;;12.44;79.40
19023;BME280;35226;48.606;8.858;2023-02-15T12:08:15;97260.28;;;12.40;77.79
19023;BME280;35226;48.606;8.858;2023-02-15T12:10:57;97257.34;;;12.79;81.07
19023;BME280;35226;48.606;8.858;2023-02-15T12:13:24;97255.38;;;13.25;70.26
19023;BME280;35226;48.606;8.858;2023-02-15T12:15:52;97255.66;;;13.30;68.48
19023;BME280;35226;48.606;8.858;2023-02-15T12:18:34;97240.03;;;13.49;63.41
19023;BME280;35226;48.606;8.858;2023-02-15T12:21:07;97239.88;;;13.69;61.01
19023;BME280;35226;48.606;8.858;2023-02-15T12:23:33;97239.56;;;13.80;64.13
19023;BME280;35226;48.606;8.858;2023-02-15T12:26:00;97244.91;;;13.45;63.39
19023;BME280;35226;48.606;8.858;2023-02-15T12:28:37;97238.53;;;13.61;60.99
19023;BME280;35226;48.606;8.858;2023-02-15T12:31:17;97242.94;;;14.00;54.62
19023;BME280;35226;48.606;8.858;2023-02-15T12:33:45;97237.41;;;13.71;55.97
19023;BME280;35226;48.606;8.858;2023-02-15T12:36:19;97232.88;;;13.77;55.83
19023;BME280;35226;48.606;8.858;2023-02-15T12:39:24;97234.94;;;14.40;55.15
19023;BME280;35226;48.606;8.858;2023-02-15T12:44:26;97228.34;;;14.34;49.36
19023;BME280;35226;48.606;8.858;2023-02-15T12:49:23;97224.16;;;14.17;46.73
19023;BME280;35226;48.606;8.858;2023-02-15T12:51:51;97222.25;;;14.14;45.94
19023;BME280;35226;48.606;8.858;2023-02-15T12:57:20;97215.13;;;14.38;45.96
19023;BME280;35226;48.606;8.858;2023-02-15T12:59:58;97214.91;;;14.32;46.75
19023;BME280;35226;48.606;8.858;2023-02-15T13:02:48;97217.91;;;14.25;47.80
19023;BME280;35226;48.606;8.858;2023-02-15T13:07:50;97205.03;;;14.19;46.83
19023;BME280;35226;48.606;8.858;2023-02-15T13:10:42;97204.47;;;14.36;48.47
19023;BME280;35226;48.606;8.858;2023-02-15T13:13:24;97197.75;;;14.59;47.50
19023;BME280;35226;48.606;8.858;2023-02-15T13:15:52;97193.97;;;14.66;45.85
19023;BME280;35226;48.606;8.858;2023-02-15T13:18:31;97190.00;;;14.54;42.77
19023;BME280;35226;48.606;8.858;2023-02-15T13:21:09;97191.72;;;14.73;42.89
19023;BME280;35226;48.606;8.858;2023-02-15T13:23:37;97187.69;;;14.87;42.75
19023;BME280;35226;48.606;8.858;2023-02-15T13:26:10;97185.88;;;14.93;44.03
19023;BME280;35226;48.606;8.858;2023-02-15T13:28:46;97180.44;;;14.90;42.08
19023;BME280;35226;48.606;8.858;2023-02-15T13:31:15;97176.31;;;14.94;41.84
19023;BME280;35226;48.606;8.858;2023-02-15T13:33:50;97170.44;;;15.14;40.72
19023;BME280;35226;48.606;8.858;2023-02-15T13:39:42;97171.47;;;15.29;37.96
19023;BME280;35226;48.606;8.858;2023-02-15T13:42:42;97174.63;;;15.40;38.62
19023;BME280;35226;48.606;8.858;2023-02-15T13:49:04;97162.56;;;15.56;36.61
19023;BME280;35226;48.606;8.858;2023-02-15T13:51:48;97161.31;;;15.35;36.54
19023;BME280;35226;48.606;8.858;2023-02-15T14:00:01;97152.84;;;15.48;39.36
19023;BME280;35226;48.606;8.858;2023-02-15T14:17:15;97146.66;;;14.78;40.24
19023;BME280;35226;48.606;8.858;2023-02-15T14:25:33;97157.53;;;14.38;40.44
19023;BME280;35226;48.606;8.858;2023-02-15T14:30:49;97155.53;;;14.26;40.79
19023;BME280;35226;48.606;8.858;2023-02-15T14:33:37;97156.00;;;14.25;40.39
19023;BME280;35226;48.606;8.858;2023-02-15T14:36:06;97153.31;;;14.21;40.14
19023;BME280;35226;48.606;8.858;2023-02-15T14:41:19;97150.13;;;13.97;41.67
19023;BME280;35226;48.606;8.858;2023-02-15T14:43:56;97146.34;;;13.91;41.71
19023;BME280;35226;48.606;8.858;2023-02-15T14:49:42;97152.91;;;13.85;42.22
19023;BME280;35226;48.606;8.858;2023-02-15T14:52:09;97153.78;;;13.82;42.85
19023;BME280;35226;48.606;8.858;2023-02-15T14:59:56;97159.31;;;14.32;42.30
19023;BME280;35226;48.606;8.858;2023-02-15T15:05:21;97159.00;;;13.92;44.04
19023;BME280;35226;48.606;8.858;2023-02-15T15:07:56;97165.13;;;13.87;44.79
19023;BME280;35226;48.606;8.858;2023-02-15T15:18:10;97157.66;;;13.71;45.13
19023;BME280;35226;48.606;8.858;2023-02-15T15:20:49;97167.53;;;13.47;45.97
19023;BME280;35226;48.606;8.858;2023-02-15T15:25:42;97151.66;;;13.48;45.41
19023;BME280;35226;48.606;8.858;2023-02-15T15:31:16;97167.13;;;13.20;47.22
19023;BME280;35226;48.606;8.858;2023-02-15T15:34:14;97162.97;;;13.12;46.79
19023;BME280;35226;48.606;8.858;2023-02-15T15:45:49;97159.56;;;12.91;47.99
19023;BME280;35226;48.606;8.858;2023-02-15T15:51:02;97164.31;;;12.62;52.45
19023;BME280;35226;48.606;8.858;2023-02-15T15:53:35;97165.09;;;12.46;56.11
19023;BME280;35226;48.606;8.858;2023-02-15T15:56:07;97169.81;;;12.33;56.66
19023;BME280;35226;48.606;8.858;2023-02-15T15:58:36;97169.53;;;12.28;58.83
19023;BME280;35226;48.606;8.858;2023-02-15T16:01:08;97170.22;;;12.15;60.45
19023;BME280;35226;48.606;8.858;2023-02-15T16:03:36;97176.03;;;12.05;59.30
19023;BME280;35226;48.606;8.858;2023-02-15T16:06:02;97172.22;;;11.99;62.03
19023;BME280;35226;48.606;8.858;2023-02-15T16:08:36;97184.06;;;11.83;63.02
19023;BME280;35226;48.606;8.858;2023-02-15T16:11:29;97183.00;;;11.77;63.93
19023;BME280;35226;48.606;8.858;2023-02-15T16:13:55;97181.31;;;11.63;65.85
19023;BME280;35226;48.606;8.858;2023-02-15T16:16:24;97179.97;;;11.52;67.89